createdAt,value
2022-10-19T00:01:22.674Z,5.72
2022-10-19T00:03:52.563Z,5.70
2022-10-19T00:06:25.556Z,5.68
2022-10-19T00:08:58.132Z,5.69
2022-10-19T00:11:25.157Z,5.56
2022-10-19T00:13:53.429Z,5.49
2022-10-19T00:16:21.343Z,5.54
2022-10-19T00:18:47.946Z,5.43
2022-10-19T00:21:16.728Z,5.41
2022-10-19T00:23:44.427Z,5.36
2022-10-19T00:26:11.865Z,5.41
2022-10-19T00:28:38.471Z,5.42
2022-10-19T00:31:07.267Z,5.37
2022-10-19T00:33:34.139Z,5.38
2022-10-19T00:36:01.331Z,5.29
2022-10-19T00:38:28.166Z,5.14
2022-10-19T00:40:54.727Z,5.18
2022-10-19T00:43:27.267Z,5.14
2022-10-19T00:45:53.930Z,5.10
2022-10-19T00:48:29.623Z,5.06
2022-10-19T00:50:57.358Z,4.92
2022-10-19T00:53:26.360Z,4.94
2022-10-19T00:55:53.528Z,5.05
2022-10-19T00:58:20.178Z,5.05
2022-10-19T01:00:46.823Z,5.15
2022-10-19T01:03:14.407Z,5.10
2022-10-19T01:05:41.454Z,5.03
2022-10-19T01:08:10.038Z,5.10
2022-10-19T01:10:51.555Z,5.08
2022-10-19T01:13:33.303Z,5.00
2022-10-19T01:16:19.595Z,4.96
2022-10-19T01:19:12.680Z,4.87
2022-10-19T01:21:57.744Z,4.85
2022-10-19T01:24:43.359Z,4.65
2022-10-19T01:27:31.204Z,4.68
2022-10-19T01:30:13.182Z,4.69
2022-10-19T01:33:11.623Z,4.81
2022-10-19T01:36:03.742Z,4.72
2022-10-19T01:38:40.957Z,4.63
2022-10-19T01:41:14.986Z,4.57
2022-10-19T01:43:50.648Z,4.61
2022-10-19T01:46:27.392Z,4.59
2022-10-19T01:49:24.633Z,4.58
2022-10-19T01:54:34.161Z,4.54
2022-10-19T01:57:04.879Z,4.34
2022-10-19T01:59:33.073Z,4.19
2022-10-19T02:02:02.045Z,4.20
2022-10-19T02:04:28.837Z,4.26
2022-10-19T02:06:55.841Z,4.26
2022-10-19T02:09:22.606Z,4.31
2022-10-19T02:11:57.591Z,4.26
2022-10-19T02:14:29.491Z,4.29
2022-10-19T02:17:15.938Z,4.09
2022-10-19T02:19:43.420Z,3.91
2022-10-19T02:22:11.667Z,3.83
2022-10-19T02:24:38.317Z,3.82
2022-10-19T02:27:06.765Z,3.75
2022-10-19T02:29:34.817Z,3.82
2022-10-19T02:32:02.298Z,3.78
2022-10-19T02:34:29.621Z,3.90
2022-10-19T02:36:56.072Z,3.94
2022-10-19T02:39:23.422Z,3.89
2022-10-19T02:41:49.782Z,3.94
2022-10-19T02:44:25.340Z,3.95
2022-10-19T02:47:18.348Z,3.96
2022-10-19T02:49:45.517Z,3.98
2022-10-19T02:52:13.539Z,3.99
2022-10-19T02:54:42.655Z,4.02
2022-10-19T02:57:25.954Z,3.96
2022-10-19T02:59:53.094Z,3.84
2022-10-19T03:02:21.406Z,3.73
2022-10-19T03:07:21.401Z,3.86
2022-10-19T03:09:47.996Z,3.85
2022-10-19T03:12:15.315Z,3.81
2022-10-19T03:14:42.406Z,3.65
2022-10-19T03:17:09.834Z,3.66
2022-10-19T03:19:36.630Z,3.55
2022-10-19T03:22:03.472Z,3.46
2022-10-19T03:24:30.505Z,3.39
2022-10-19T03:26:57.175Z,3.47
2022-10-19T03:29:23.838Z,3.52
2022-10-19T03:31:50.547Z,3.46
2022-10-19T03:34:17.404Z,3.33
2022-10-19T03:36:43.992Z,3.29
2022-10-19T03:39:12.937Z,3.28
2022-10-19T03:41:40.204Z,3.28
2022-10-19T03:44:08.403Z,3.23
2022-10-19T03:46:35.725Z,3.24
2022-10-19T03:49:02.555Z,3.26
2022-10-19T03:51:31.170Z,3.29
2022-10-19T03:54:00.378Z,3.23
2022-10-19T03:56:28.998Z,3.27
2022-10-19T03:58:57.249Z,3.32
2022-10-19T04:01:32.707Z,3.38
2022-10-19T04:04:01.891Z,3.39
2022-10-19T04:06:31.273Z,3.44
2022-10-19T04:08:58.642Z,3.52
2022-10-19T04:11:26.842Z,3.53
2022-10-19T04:13:54.624Z,3.46
2022-10-19T04:16:22.339Z,3.40
2022-10-19T04:18:49.163Z,3.47
2022-10-19T04:21:24.835Z,3.44
2022-10-19T04:23:53.358Z,3.39
2022-10-19T04:26:20.543Z,3.33
2022-10-19T04:28:47.302Z,3.37
2022-10-19T04:31:14.128Z,3.38
2022-10-19T04:33:41.317Z,3.24
2022-10-19T04:36:10.631Z,3.18
2022-10-19T04:38:37.749Z,3.18
2022-10-19T04:41:10.501Z,3.21
2022-10-19T04:43:37.992Z,3.22
2022-10-19T04:46:09.891Z,3.26
2022-10-19T04:48:38.383Z,3.28
2022-10-19T04:51:05.691Z,3.10
2022-10-19T04:53:32.451Z,3.13
2022-10-19T04:55:59.216Z,3.02
2022-10-19T04:58:26.155Z,3.02
2022-10-19T05:00:52.739Z,2.79
2022-10-19T05:03:19.320Z,2.68
2022-10-19T05:05:45.856Z,2.70
2022-10-19T05:08:12.565Z,2.61
2022-10-19T05:10:39.918Z,2.45
2022-10-19T05:13:07.115Z,2.48
2022-10-19T05:15:33.687Z,2.41
2022-10-19T05:18:00.311Z,2.44
2022-10-19T05:20:27.338Z,2.59
2022-10-19T05:22:53.882Z,2.69
2022-10-19T05:25:20.430Z,2.83
2022-10-19T05:27:51.187Z,2.84
2022-10-19T05:30:17.865Z,2.93
2022-10-19T05:32:44.430Z,2.84
2022-10-19T05:35:11.039Z,2.71
2022-10-19T05:37:37.743Z,2.76
2022-10-19T05:40:04.880Z,2.79
2022-10-19T05:42:31.458Z,2.76
2022-10-19T05:44:57.948Z,2.99
2022-10-19T05:47:27.364Z,3.18
2022-10-19T05:49:56.795Z,3.36
2022-10-19T05:52:23.372Z,3.68
2022-10-19T05:54:50.029Z,4.26
2022-10-19T05:57:16.552Z,4.72
2022-10-19T05:59:43.148Z,5.27
2022-10-19T06:02:14.185Z,5.69
2022-10-19T06:04:40.743Z,6.04
2022-10-19T06:07:07.361Z,6.45
2022-10-19T06:09:36.327Z,6.82
2022-10-19T06:12:03.762Z,6.85
2022-10-19T06:14:30.228Z,7.12
2022-10-19T06:16:56.964Z,7.36
2022-10-19T06:19:23.478Z,7.48
2022-10-19T06:21:50.012Z,7.24
2022-10-19T06:24:16.619Z,7.51
2022-10-19T06:26:43.208Z,8.01
2022-10-19T06:29:10.066Z,8.21
2022-10-19T06:31:36.724Z,8.42
2022-10-19T06:34:03.443Z,8.58
2022-10-19T06:36:31.286Z,8.69
2022-10-19T06:38:59.836Z,8.84
2022-10-19T06:41:26.465Z,8.83
2022-10-19T06:43:54.202Z,8.23
2022-10-19T06:46:23.494Z,8.41
2022-10-19T06:48:54.771Z,8.85
2022-10-19T06:51:22.212Z,9.09
2022-10-19T06:53:51.673Z,9.42
2022-10-19T06:56:24.537Z,9.85
2022-10-19T06:58:51.132Z,10.07
2022-10-19T07:01:18.299Z,10.46
2022-10-19T07:03:44.954Z,10.77
2022-10-19T07:06:13.181Z,10.59
2022-10-19T07:08:41.811Z,10.43
2022-10-19T07:11:11.034Z,10.72
2022-10-19T07:13:37.693Z,11.03
2022-10-19T07:16:08.032Z,10.74
2022-10-19T07:18:36.191Z,10.88
2022-10-19T07:21:06.023Z,11.10
2022-10-19T07:23:34.340Z,11.49
2022-10-19T07:26:09.815Z,12.18
2022-10-19T07:28:36.366Z,12.50
2022-10-19T07:31:08.213Z,12.95
2022-10-19T07:33:35.170Z,13.07
2022-10-19T07:36:03.924Z,13.27
2022-10-19T07:38:31.917Z,13.45
2022-10-19T07:41:18.574Z,13.26
2022-10-19T07:43:46.883Z,13.62
2022-10-19T07:46:16.315Z,13.98
2022-10-19T07:48:43.849Z,14.11
2022-10-19T07:51:12.110Z,14.41
2022-10-19T07:53:39.512Z,14.75
2022-10-19T07:56:07.302Z,14.84
2022-10-19T07:58:34.549Z,15.28
2022-10-19T08:01:03.606Z,15.78
2022-10-19T08:06:19.064Z,16.48
2022-10-19T08:08:47.256Z,16.71
2022-10-19T08:11:17.531Z,17.07
2022-10-19T08:13:44.829Z,17.53
2022-10-19T08:16:25.538Z,17.73
2022-10-19T08:18:56.105Z,18.52
2022-10-19T08:21:23.014Z,18.73
2022-10-19T08:23:49.681Z,18.71
2022-10-19T08:26:16.520Z,18.98
2022-10-19T08:28:43.084Z,19.33
2022-10-19T08:31:15.763Z,19.61
2022-10-19T08:33:43.038Z,20.41
2022-10-19T08:36:10.378Z,21.17
2022-10-19T08:38:37.963Z,21.13
2022-10-19T08:41:20.791Z,21.60
2022-10-19T08:44:05.100Z,21.07
2022-10-19T08:46:43.005Z,20.60
2022-10-19T08:49:15.881Z,20.52
2022-10-19T08:51:46.070Z,21.08
2022-10-19T08:54:17.552Z,22.13
2022-10-19T08:57:11.235Z,22.08
2022-10-19T08:59:48.739Z,21.95
2022-10-19T09:02:42.247Z,23.30
2022-10-19T09:06:01.274Z,23.64
2022-10-19T09:08:28.453Z,22.96
2022-10-19T09:10:55.317Z,22.29
2022-10-19T09:13:41.486Z,22.69
2022-10-19T09:16:20.024Z,21.76
2022-10-19T09:18:50.698Z,20.75
2022-10-19T09:21:28.179Z,19.68
2022-10-19T09:24:19.210Z,18.69
2022-10-19T09:26:55.262Z,18.27
2022-10-19T09:29:32.180Z,17.78
2022-10-19T09:32:01.615Z,17.74
2022-10-19T09:34:43.582Z,17.76
2022-10-19T09:37:20.070Z,17.77
2022-10-19T09:39:54.128Z,17.76
2022-10-19T09:42:30.414Z,17.96
2022-10-19T09:45:00.898Z,18.09
2022-10-19T09:47:38.196Z,18.03
2022-10-19T09:50:25.872Z,17.92
2022-10-19T09:52:57.495Z,17.89
2022-10-19T09:55:29.939Z,17.98
2022-10-19T09:58:05.776Z,18.11
2022-10-19T10:00:36.980Z,18.29
2022-10-19T10:03:06.098Z,18.39
2022-10-19T10:05:40.735Z,18.35
2022-10-19T10:08:18.119Z,18.41
2022-10-19T10:10:56.587Z,18.68
2022-10-19T10:13:25.991Z,18.61
2022-10-19T10:16:06.082Z,18.65
2022-10-19T10:18:38.502Z,18.50
2022-10-19T10:21:14.702Z,18.53
2022-10-19T10:23:41.378Z,18.52
2022-10-19T10:26:17.875Z,18.45
2022-10-19T10:28:50.115Z,18.64
2022-10-19T10:31:22.678Z,18.96
2022-10-19T10:34:10.886Z,19.31
2022-10-19T10:36:54.014Z,19.38
2022-10-19T10:39:20.856Z,19.44
2022-10-19T10:41:49.090Z,19.60
2022-10-19T10:44:23.450Z,19.54
2022-10-19T10:46:51.918Z,19.53
2022-10-19T10:49:25.265Z,19.63
2022-10-19T10:51:56.843Z,19.67
2022-10-19T10:54:31.289Z,19.79
2022-10-19T10:57:15.688Z,19.91
2022-10-19T11:00:03.669Z,20.02
2022-10-19T11:03:00.785Z,20.30
2022-10-19T11:05:49.791Z,20.55
2022-10-19T11:08:31.976Z,20.42
2022-10-19T11:11:19.749Z,20.48
2022-10-19T11:13:53.056Z,20.56
2022-10-19T11:16:41.989Z,20.83
2022-10-19T11:19:25.742Z,21.02
2022-10-19T11:22:05.691Z,21.20
2022-10-19T11:24:48.729Z,21.35
2022-10-19T11:27:52.390Z,21.39
2022-10-19T11:30:22.225Z,21.50
2022-10-19T11:33:07.021Z,21.59
2022-10-19T11:35:55.009Z,21.63
2022-10-19T11:38:40.077Z,21.84
2022-10-19T11:41:18.226Z,22.03
2022-10-19T11:43:51.175Z,22.07
2022-10-19T11:46:29.839Z,22.11
2022-10-19T11:49:05.118Z,22.46
2022-10-19T11:51:35.683Z,22.76
2022-10-19T11:54:33.240Z,22.78
2022-10-19T11:57:16.235Z,22.95
2022-10-19T12:00:15.370Z,23.15
2022-10-19T12:03:12.486Z,23.29
2022-10-19T12:05:41.759Z,23.52
2022-10-19T12:08:14.085Z,23.63
2022-10-19T12:10:52.936Z,23.63
2022-10-19T12:13:27.406Z,23.50
2022-10-19T12:15:56.494Z,23.42
2022-10-19T12:18:31.855Z,23.47
2022-10-19T12:21:02.393Z,23.50
2022-10-19T12:23:32.984Z,23.59
2022-10-19T12:26:03.211Z,23.67
2022-10-19T12:28:34.187Z,23.70
2022-10-19T12:31:02.598Z,23.73
2022-10-19T12:33:37.051Z,23.68
2022-10-19T12:36:13.753Z,23.73
2022-10-19T12:39:00.058Z,23.69
2022-10-19T12:41:31.646Z,23.81
2022-10-19T12:44:28.614Z,23.71
2022-10-19T12:47:10.430Z,23.69
2022-10-19T12:49:44.429Z,23.67
2022-10-19T12:52:12.666Z,23.64
2022-10-19T12:54:41.391Z,23.63
2022-10-19T12:57:25.908Z,23.68
2022-10-19T13:00:00.663Z,23.61
2022-10-19T13:02:34.135Z,23.56
2022-10-19T13:05:01.588Z,23.52
2022-10-19T13:07:36.661Z,23.51
2022-10-19T13:10:07.181Z,23.58
2022-10-19T13:12:46.229Z,23.58
2022-10-19T13:15:34.556Z,23.60
2022-10-19T13:18:16.808Z,23.56
2022-10-19T13:20:51.748Z,23.64
2022-10-19T13:23:18.411Z,23.59
2022-10-19T13:25:44.955Z,23.62
2022-10-19T13:28:12.784Z,23.66
2022-10-19T13:30:39.365Z,23.62
2022-10-19T13:33:31.404Z,23.48
2022-10-19T13:36:00.758Z,23.45
2022-10-19T13:38:41.196Z,23.37
2022-10-19T13:41:15.517Z,23.38
2022-10-19T13:44:12.061Z,23.49
2022-10-19T13:46:44.394Z,23.49
2022-10-19T13:49:10.863Z,23.51
2022-10-19T13:51:56.127Z,23.48
2022-10-19T13:54:43.656Z,23.44
2022-10-19T13:57:33.663Z,23.34
2022-10-19T14:00:21.883Z,23.29
2022-10-19T14:02:57.241Z,23.38
2022-10-19T14:05:42.306Z,23.36
2022-10-19T14:08:33.379Z,23.32
2022-10-19T14:11:26.342Z,23.34
2022-10-19T14:14:10.883Z,23.30
2022-10-19T14:17:01.426Z,23.17
2022-10-19T14:19:33.183Z,23.20
2022-10-19T14:22:18.763Z,23.06
2022-10-19T14:24:45.497Z,23.06
2022-10-19T14:27:18.805Z,23.01
2022-10-19T14:29:48.027Z,22.95
2022-10-19T14:32:15.046Z,22.80
2022-10-19T14:34:47.302Z,22.71
2022-10-19T14:37:22.613Z,22.48
2022-10-19T14:40:05.260Z,22.46
2022-10-19T14:42:44.052Z,22.36
2022-10-19T14:45:24.386Z,22.14
2022-10-19T14:48:02.328Z,21.90
2022-10-19T14:50:55.043Z,21.64
2022-10-19T14:53:41.910Z,21.55
2022-10-19T14:56:10.892Z,21.42
2022-10-19T14:58:44.408Z,21.36
2022-10-19T15:01:12.267Z,21.22
2022-10-19T15:03:43.649Z,21.18
2022-10-19T15:06:17.885Z,21.01
2022-10-19T15:08:49.930Z,20.98
2022-10-19T15:11:39.707Z,20.84
2022-10-19T15:14:14.450Z,20.81
2022-10-19T15:16:49.818Z,20.70
2022-10-19T15:19:32.363Z,20.59
2022-10-19T15:22:14.132Z,20.55
2022-10-19T15:25:02.078Z,20.41
2022-10-19T15:27:34.592Z,20.24
2022-10-19T15:30:19.469Z,20.18
2022-10-19T15:32:48.960Z,20.09
2022-10-19T15:35:24.356Z,20.05
2022-10-19T15:37:51.452Z,19.92
2022-10-19T15:40:44.429Z,19.87
2022-10-19T15:43:35.994Z,19.88
2022-10-19T15:46:20.108Z,19.89
2022-10-19T15:48:52.349Z,19.74
2022-10-19T15:51:24.729Z,19.65
2022-10-19T15:53:57.448Z,19.65
2022-10-19T15:56:26.002Z,19.71
2022-10-19T15:58:54.864Z,19.64
2022-10-19T16:01:26.115Z,19.62
2022-10-19T16:03:53.710Z,19.58
2022-10-19T16:06:22.445Z,19.60
2022-10-19T16:08:51.212Z,19.55
2022-10-19T16:11:20.028Z,19.43
2022-10-19T16:13:47.247Z,19.38
2022-10-19T16:16:29.201Z,19.32
2022-10-19T16:18:56.528Z,19.34
2022-10-19T16:21:25.553Z,19.29
2022-10-19T16:23:52.290Z,19.24
2022-10-19T16:26:19.383Z,18.97
2022-10-19T16:28:45.938Z,18.85
2022-10-19T16:31:12.672Z,18.75
2022-10-19T16:33:39.185Z,18.48
2022-10-19T16:36:07.533Z,18.44
2022-10-19T16:38:34.775Z,18.34
2022-10-19T16:41:03.333Z,18.29
2022-10-19T16:43:30.421Z,18.27
2022-10-19T16:45:57.486Z,18.29
2022-10-19T16:48:25.419Z,18.19
2022-10-19T16:51:24.351Z,18.09
2022-10-19T16:53:53.709Z,18.14
2022-10-19T16:56:20.612Z,18.15
2022-10-19T16:58:47.271Z,18.21
2022-10-19T17:01:17.090Z,18.16
2022-10-19T17:03:44.851Z,18.15
2022-10-19T17:06:12.451Z,18.08
2022-10-19T17:09:02.674Z,17.99
2022-10-19T17:11:29.563Z,17.92
2022-10-19T17:13:58.507Z,17.95
2022-10-19T17:16:26.327Z,17.84
2022-10-19T17:18:55.261Z,17.74
2022-10-19T17:21:24.285Z,17.73
2022-10-19T17:23:59.277Z,17.83
2022-10-19T17:26:28.130Z,17.84
2022-10-19T17:28:55.817Z,17.70
2022-10-19T17:31:22.700Z,17.53
2022-10-19T17:33:49.841Z,17.60
2022-10-19T17:36:19.238Z,17.61
2022-10-19T17:38:46.670Z,17.53
2022-10-19T17:41:14.673Z,17.50
2022-10-19T17:43:43.225Z,17.41
2022-10-19T17:46:12.037Z,17.09
2022-10-19T17:48:40.428Z,17.03
2022-10-19T17:51:10.986Z,17.00
2022-10-19T17:53:37.599Z,17.04
2022-10-19T17:56:06.818Z,17.09
2022-10-19T17:58:39.033Z,17.18
2022-10-19T18:01:08.729Z,17.10
2022-10-19T18:03:36.410Z,17.05
2022-10-19T18:06:09.648Z,16.91
2022-10-19T18:08:41.006Z,16.83
2022-10-19T18:11:14.511Z,16.72
2022-10-19T18:13:41.696Z,16.58
2022-10-19T18:16:13.958Z,16.60
2022-10-19T18:19:19.104Z,16.48
2022-10-19T18:21:47.423Z,16.39
2022-10-19T18:24:19.669Z,16.40
2022-10-19T18:26:47.463Z,16.39
2022-10-19T18:29:20.422Z,16.40
2022-10-19T18:31:52.317Z,16.27
2022-10-19T18:34:22.543Z,16.38
2022-10-19T18:36:50.121Z,16.39
2022-10-19T18:39:17.022Z,16.35
2022-10-19T18:41:43.692Z,16.25
2022-10-19T18:44:13.182Z,16.20
2022-10-19T18:46:39.980Z,16.18
2022-10-19T18:49:08.670Z,16.20
2022-10-19T18:51:36.079Z,16.14
2022-10-19T18:54:02.559Z,16.16
2022-10-19T18:56:33.509Z,16.08
2022-10-19T18:59:00.110Z,15.96
2022-10-19T19:01:28.534Z,15.95
2022-10-19T19:03:57.631Z,15.84
2022-10-19T19:06:29.438Z,15.71
2022-10-19T19:09:00.549Z,15.59
2022-10-19T19:11:31.832Z,15.56
2022-10-19T19:14:21.239Z,15.57
2022-10-19T19:16:47.856Z,15.54
2022-10-19T19:19:16.081Z,15.54
2022-10-19T19:21:44.471Z,15.41
2022-10-19T19:24:14.809Z,15.34
2022-10-19T19:26:46.765Z,15.17
2022-10-19T19:29:15.597Z,15.14
2022-10-19T19:31:42.199Z,15.16
2022-10-19T19:34:11.899Z,15.11
2022-10-19T19:39:18.836Z,14.96
2022-10-19T19:41:46.076Z,14.79
2022-10-19T19:44:12.611Z,14.70
2022-10-19T19:46:39.165Z,14.64
2022-10-19T19:49:05.894Z,14.46
2022-10-19T19:51:33.438Z,14.33
2022-10-19T19:54:00.065Z,14.32
2022-10-19T19:56:26.867Z,14.29
2022-10-19T19:58:59.056Z,14.26
2022-10-19T20:01:25.799Z,14.12
2022-10-19T20:03:52.590Z,14.03
2022-10-19T20:06:23.509Z,13.90
2022-10-19T20:08:52.674Z,13.84
2022-10-19T20:11:19.305Z,13.76
2022-10-19T20:13:45.995Z,13.75
2022-10-19T20:16:15.326Z,13.76
2022-10-19T20:18:44.870Z,13.78
2022-10-19T20:21:12.033Z,13.82
2022-10-19T20:23:38.715Z,13.90
2022-10-19T20:26:05.399Z,13.81
2022-10-19T20:28:33.156Z,13.72
2022-10-19T20:31:05.880Z,13.66
2022-10-19T20:33:34.706Z,13.54
2022-10-19T20:36:14.285Z,13.41
2022-10-19T20:38:46.017Z,13.37
2022-10-19T20:41:12.537Z,13.33
2022-10-19T20:43:39.174Z,13.19
2022-10-19T20:46:12.546Z,13.10
2022-10-19T20:48:40.282Z,13.09
2022-10-19T20:51:14.699Z,13.02
2022-10-19T20:53:42.575Z,12.92
2022-10-19T20:56:10.812Z,12.86
2022-10-19T20:58:43.230Z,12.73
2022-10-19T21:01:10.953Z,12.81
2022-10-19T21:03:37.888Z,12.86
2022-10-19T21:06:08.709Z,12.94
2022-10-19T21:08:36.113Z,13.03
2022-10-19T21:11:11.398Z,13.13
2022-10-19T21:13:37.928Z,13.32
2022-10-19T21:16:09.259Z,13.54
2022-10-19T21:18:35.943Z,13.70
2022-10-19T21:21:11.475Z,13.77
2022-10-19T21:23:38.224Z,13.91
2022-10-19T21:26:04.796Z,14.01
2022-10-19T21:28:31.455Z,14.10
2022-10-19T21:31:02.616Z,14.22
2022-10-19T21:33:29.179Z,14.19
2022-10-19T21:35:55.797Z,14.07
2022-10-19T21:38:22.329Z,14.04
2022-10-19T21:40:48.876Z,13.96
2022-10-19T21:43:15.379Z,13.86
2022-10-19T21:45:41.903Z,13.73
2022-10-19T21:48:08.407Z,13.46
2022-10-19T21:50:34.914Z,13.46
2022-10-19T21:53:01.467Z,13.55
2022-10-19T21:55:29.669Z,13.75
2022-10-19T21:57:56.179Z,13.83
2022-10-19T22:00:22.711Z,13.87
2022-10-19T22:02:49.228Z,13.80
2022-10-19T22:05:15.811Z,13.88
2022-10-19T22:07:42.332Z,13.80
2022-10-19T22:10:09.358Z,13.84
2022-10-19T22:12:36.031Z,13.88
2022-10-19T22:15:02.713Z,13.84
2022-10-19T22:17:29.259Z,13.80
2022-10-19T22:19:55.756Z,13.73
2022-10-19T22:22:22.324Z,13.62
2022-10-19T22:24:48.856Z,13.48
2022-10-19T22:27:15.445Z,13.42
2022-10-19T22:29:41.984Z,13.33
2022-10-19T22:32:08.533Z,13.30
2022-10-19T22:34:35.038Z,13.19
2022-10-19T22:37:01.600Z,13.12
2022-10-19T22:39:30.046Z,13.06
2022-10-19T22:42:52.678Z,13.00
2022-10-19T22:46:15.224Z,13.04
2022-10-19T22:49:38.088Z,13.02
2022-10-19T22:52:57.349Z,12.99
2022-10-19T22:55:24.037Z,12.95
2022-10-19T22:57:50.596Z,12.86
2022-10-19T23:00:17.157Z,12.80
2022-10-19T23:02:43.677Z,12.82
2022-10-19T23:05:10.174Z,12.74
2022-10-19T23:07:38.224Z,12.71
2022-10-19T23:10:06.038Z,12.58
2022-10-19T23:12:32.582Z,12.54
2022-10-19T23:14:59.089Z,12.49
2022-10-19T23:17:25.587Z,12.51
2022-10-19T23:19:52.072Z,12.49
2022-10-19T23:22:18.564Z,12.53
2022-10-19T23:24:45.072Z,12.60
2022-10-19T23:27:13.495Z,12.59
2022-10-19T23:29:40.064Z,12.68
2022-10-19T23:32:06.811Z,12.71
2022-10-19T23:37:04.730Z,12.71
2022-10-19T23:39:31.284Z,12.60
2022-10-19T23:41:57.851Z,12.59
2022-10-19T23:44:24.428Z,12.46
2022-10-19T23:46:50.967Z,12.36
2022-10-19T23:49:17.500Z,12.35
2022-10-19T23:51:44.052Z,12.30
2022-10-19T23:54:10.536Z,12.18
2022-10-19T23:56:37.055Z,12.13
2022-10-19T23:59:05.307Z,12.16
